Impacts METAR Board INFO
IDs:

KMEM - Memphis Intl, TN, US

Updated at: 2243 UTC 21 Nov 2017
Potential Impact None Slight Moderate High
Time21/10Z 21/11Z 21/12Z 21/13Z 21/14Z 21/15Z 21/16Z 21/17Z 21/18Z 21/19Z 21/20Z 21/21Z 21/22Z
VIS10 10 10 10 10 10 10 10 10 10 10 10 10
CIG-- 250 250 220 250 250 250 250 250 250 90 40 250
CoverSCTBKNBKNBKNBKNOVCOVCBKNBKNOVCOVCOVCOVC
FltCatVFRVFRVFRVFRVFRVFRVFRVFRVFRVFRVFRVFRVFR
WX--------------------------
WDir1601701501901802002102001902301800210
WSpd7 5 6 4 7 9 8 8 8 7 7 3 6
WGst-- -- -- -- -- 15 -- -- -- 17 -- -- --
Raw hourly METARs
KMEM 210954Z 16007KT 10SM SCT250 04/M01 A3000 RMK AO2 SLP159 T00391006
KMEM 211054Z 17005KT 10SM BKN250 04/M01 A3001 RMK AO2 SLP162 T00391006 $
KMEM 211154Z 15006KT 10SM BKN250 04/00 A3001 RMK AO2 SLP163 T00390000 10056 20033 53000 $
KMEM 211254Z 19004KT 10SM BKN220 03/00 A3002 RMK AO2 SLP167 T00330000 $
KMEM 211354Z 18007KT 10SM BKN250 05/01 A3004 RMK AO2 SLP174 T00500011 $
KMEM 211454Z 20009G15KT 10SM OVC250 08/02 A3006 RMK AO2 SLP179 T00780017 53016
KMEM 211554Z 21008KT 10SM OVC250 11/02 A3006 RMK AO2 SLP179 T01060022
KMEM 211654Z 20008KT 10SM BKN250 13/02 A3005 RMK AO2 SLP176 T01280017
KMEM 211754Z 19008KT 10SM BKN250 14/02 A3003 RMK AO2 SLP169 T01440022 10144 20028 58009
KMEM 211854Z 23007G17KT 190V280 10SM SCT090 OVC250 16/01 A3002 RMK AO2 SLP167 T01560006
KMEM 211954Z 18007KT 10SM BKN090 OVC250 16/02 A3002 RMK AO2 SLP164 T01560022
KMEM 212054Z VRB03KT 10SM BKN040 OVC250 16/03 A3001 RMK AO2 SLP160 T01560028 58008
KMEM 212154Z 21006KT 10SM FEW033 FEW090 OVC250 15/03 A3001 RMK AO2 SLP161 T01500033